createdAt,value
2023-03-29T00:00:08.350Z,1.70
2023-03-29T00:02:35.560Z,1.70
2023-03-29T00:05:05.280Z,1.70
2023-03-29T00:07:34.098Z,1.70
2023-03-29T00:10:04.620Z,1.70
2023-03-29T00:12:32.278Z,1.70
2023-03-29T00:14:59.395Z,1.70
2023-03-29T00:17:26.677Z,1.70
2023-03-29T00:19:53.828Z,1.70
2023-03-29T00:22:22.057Z,1.70
2023-03-29T00:24:49.341Z,1.70
2023-03-29T00:27:16.924Z,1.70
2023-03-29T00:29:44.064Z,1.70
2023-03-29T00:32:11.228Z,1.70
2023-03-29T00:34:38.365Z,1.60
2023-03-29T00:37:08.974Z,1.60
2023-03-29T00:39:36.422Z,1.60
2023-03-29T00:42:05.790Z,1.60
2023-03-29T00:45:04.411Z,1.60
2023-03-29T00:47:41.750Z,1.60
2023-03-29T00:50:16.461Z,1.60
2023-03-29T00:52:48.700Z,1.60
2023-03-29T00:55:19.510Z,1.60
2023-03-29T00:57:47.400Z,1.60
2023-03-29T01:00:21.022Z,1.60
2023-03-29T01:02:54.272Z,1.50
2023-03-29T01:05:32.262Z,1.50
2023-03-29T01:08:04.580Z,1.60
2023-03-29T01:11:14.038Z,1.60
2023-03-29T01:14:05.628Z,1.60
2023-03-29T01:16:38.447Z,1.60
2023-03-29T01:19:08.887Z,1.60
2023-03-29T01:21:55.131Z,1.60
2023-03-29T01:25:13.692Z,1.60
2023-03-29T01:27:52.574Z,1.60
2023-03-29T01:30:27.424Z,1.60
2023-03-29T01:32:59.335Z,1.60
2023-03-29T01:35:57.729Z,1.60
2023-03-29T01:38:31.301Z,1.60
2023-03-29T01:41:36.936Z,1.70
2023-03-29T01:44:10.536Z,1.60
2023-03-29T01:46:46.248Z,1.70
2023-03-29T01:49:13.531Z,1.70
2023-03-29T01:51:46.115Z,1.70
2023-03-29T01:54:19.187Z,1.70
2023-03-29T01:56:49.171Z,1.70
2023-03-29T01:59:20.478Z,1.70
2023-03-29T02:01:54.504Z,1.70
2023-03-29T02:04:27.900Z,1.70
2023-03-29T02:06:57.805Z,1.70
2023-03-29T02:09:25.500Z,1.70
2023-03-29T02:11:53.879Z,1.60
2023-03-29T02:14:21.300Z,1.60
2023-03-29T02:16:49.727Z,1.60
2023-03-29T02:19:18.438Z,1.50
2023-03-29T02:21:56.817Z,1.50
2023-03-29T02:24:25.402Z,1.50
2023-03-29T02:26:52.777Z,1.50
2023-03-29T02:29:21.376Z,1.40
2023-03-29T02:31:58.480Z,1.50
2023-03-29T02:34:42.171Z,1.40
2023-03-29T02:37:16.169Z,1.40
2023-03-29T02:40:18.392Z,1.40
2023-03-29T02:42:46.543Z,1.40
2023-03-29T02:45:17.579Z,1.30
2023-03-29T02:47:50.306Z,1.30
2023-03-29T02:50:18.608Z,1.30
2023-03-29T02:52:53.727Z,1.30
2023-03-29T02:55:24.763Z,1.30
2023-03-29T02:57:52.075Z,1.30
2023-03-29T03:00:20.275Z,1.30
2023-03-29T03:02:48.283Z,1.30
2023-03-29T03:05:15.564Z,1.20
2023-03-29T03:07:42.733Z,1.30
2023-03-29T03:10:10.320Z,1.30
2023-03-29T03:12:37.622Z,1.30
2023-03-29T03:15:05.843Z,1.30
2023-03-29T03:17:33.501Z,1.30
2023-03-29T03:20:00.751Z,1.20
2023-03-29T03:22:27.898Z,1.30
2023-03-29T03:24:56.103Z,1.30
2023-03-29T03:27:23.245Z,1.20
2023-03-29T03:29:50.276Z,1.20
2023-03-29T03:32:17.577Z,1.20
2023-03-29T03:34:44.747Z,1.20
2023-03-29T03:37:12.261Z,1.20
2023-03-29T03:39:39.363Z,1.20
2023-03-29T03:42:08.361Z,1.20
2023-03-29T03:44:35.748Z,1.30
2023-03-29T03:47:02.862Z,1.30
2023-03-29T03:49:30.058Z,1.40
2023-03-29T03:51:57.304Z,1.40
2023-03-29T03:54:24.617Z,1.40
2023-03-29T03:56:51.984Z,1.40
2023-03-29T03:59:22.454Z,1.50
2023-03-29T04:01:49.842Z,1.50
2023-03-29T04:04:17.346Z,1.60
2023-03-29T04:06:44.480Z,1.60
2023-03-29T04:09:12.958Z,1.70
2023-03-29T04:11:40.103Z,1.70
2023-03-29T04:14:07.416Z,1.70
2023-03-29T04:16:36.364Z,1.70
2023-03-29T04:19:03.507Z,1.70
2023-03-29T04:21:30.851Z,1.70
2023-03-29T04:24:00.045Z,1.70
2023-03-29T04:26:27.230Z,1.70
2023-03-29T04:28:54.299Z,1.70
2023-03-29T04:31:34.515Z,1.70
2023-03-29T04:34:02.756Z,1.80
2023-03-29T04:36:29.893Z,1.80
2023-03-29T04:38:57.217Z,1.80
2023-03-29T04:41:24.891Z,1.80
2023-03-29T04:43:52.311Z,1.80
2023-03-29T04:46:19.532Z,1.80
2023-03-29T04:48:49.881Z,1.80
2023-03-29T04:51:17.670Z,1.80
2023-03-29T04:53:44.830Z,1.80
2023-03-29T04:56:14.620Z,1.80
2023-03-29T04:58:42.344Z,1.80
2023-03-29T05:01:09.406Z,1.80
2023-03-29T05:03:36.589Z,1.80
2023-03-29T05:06:07.288Z,1.80
2023-03-29T05:08:39.329Z,1.90
2023-03-29T05:11:11.673Z,1.90
2023-03-29T05:13:38.866Z,2.00
2023-03-29T05:16:08.040Z,2.10
2023-03-29T05:18:35.768Z,2.20
2023-03-29T05:21:03.426Z,2.30
2023-03-29T05:23:30.927Z,2.40
2023-03-29T05:25:58.910Z,2.60
2023-03-29T05:28:26.220Z,2.70
2023-03-29T05:31:04.891Z,2.90
2023-03-29T05:33:33.743Z,3.00
2023-03-29T05:36:11.033Z,3.20
2023-03-29T05:38:38.299Z,3.40
2023-03-29T05:41:06.438Z,3.50
2023-03-29T05:43:34.257Z,3.60
2023-03-29T05:46:01.382Z,3.70
2023-03-29T05:48:29.047Z,3.90
2023-03-29T05:50:57.836Z,4.00
2023-03-29T05:53:29.801Z,4.10
2023-03-29T05:55:56.934Z,4.20
2023-03-29T05:58:26.861Z,4.30
2023-03-29T06:00:54.616Z,4.30
2023-03-29T06:03:25.565Z,4.40
2023-03-29T06:06:02.521Z,4.50
2023-03-29T06:08:30.208Z,4.50
2023-03-29T06:11:09.028Z,4.60
2023-03-29T06:13:38.866Z,4.60
2023-03-29T06:16:06.716Z,4.70
2023-03-29T06:18:33.827Z,4.80
2023-03-29T06:21:03.791Z,4.90
2023-03-29T06:23:31.552Z,5.00
2023-03-29T06:26:00.265Z,5.00
2023-03-29T06:28:27.738Z,5.10
2023-03-29T06:30:56.628Z,5.20
2023-03-29T06:33:25.372Z,5.20
2023-03-29T06:35:52.774Z,5.30
2023-03-29T06:38:20.879Z,5.40
2023-03-29T06:40:48.384Z,5.50
2023-03-29T06:43:15.617Z,5.60
2023-03-29T06:45:44.072Z,5.70
2023-03-29T06:48:11.466Z,5.80
2023-03-29T06:50:38.528Z,5.90
2023-03-29T06:53:05.918Z,6.00
2023-03-29T06:55:33.267Z,6.10
2023-03-29T06:58:02.696Z,6.20
2023-03-29T07:00:30.697Z,6.30
2023-03-29T07:03:00.863Z,6.40
2023-03-29T07:05:29.045Z,6.50
2023-03-29T07:08:11.802Z,6.70
2023-03-29T07:10:41.728Z,6.80
2023-03-29T07:13:13.367Z,7.00
2023-03-29T07:15:41.654Z,7.20
2023-03-29T07:18:09.938Z,7.30
2023-03-29T07:20:39.009Z,7.40
2023-03-29T07:23:07.852Z,7.50
2023-03-29T07:25:36.285Z,7.50
2023-03-29T07:28:03.731Z,7.50
2023-03-29T07:30:32.692Z,7.60
2023-03-29T07:33:00.804Z,7.80
2023-03-29T07:35:31.075Z,7.90
2023-03-29T07:37:58.671Z,8.00
2023-03-29T07:40:26.419Z,8.10
2023-03-29T07:42:55.811Z,8.10
2023-03-29T07:45:26.501Z,8.20
2023-03-29T07:47:56.530Z,8.20
2023-03-29T07:50:24.583Z,8.30
2023-03-29T07:52:51.749Z,8.40
2023-03-29T07:55:19.121Z,8.40
2023-03-29T07:57:46.238Z,8.40
2023-03-29T08:00:17.080Z,8.40
2023-03-29T08:02:46.263Z,8.60
2023-03-29T08:05:18.998Z,8.70
2023-03-29T08:07:50.669Z,8.80
2023-03-29T08:10:19.583Z,8.90
2023-03-29T08:12:48.045Z,9.00
2023-03-29T08:15:15.457Z,9.00
2023-03-29T08:17:43.450Z,9.00
2023-03-29T08:20:13.561Z,9.00
2023-03-29T08:22:41.274Z,9.10
2023-03-29T08:25:09.220Z,9.20
2023-03-29T08:27:38.552Z,9.30
2023-03-29T08:30:08.227Z,9.40
2023-03-29T08:32:36.973Z,9.50
2023-03-29T08:35:09.670Z,9.60
2023-03-29T08:37:37.611Z,9.80
2023-03-29T08:40:06.355Z,9.80
2023-03-29T08:42:46.557Z,9.90
2023-03-29T08:45:23.443Z,10.00
2023-03-29T08:48:08.879Z,10.10
2023-03-29T08:50:39.952Z,10.30
2023-03-29T08:53:15.560Z,10.40
2023-03-29T08:55:45.817Z,10.50
2023-03-29T08:58:17.313Z,10.60
2023-03-29T09:00:54.309Z,10.70
2023-03-29T09:04:02.045Z,10.70
2023-03-29T09:06:29.222Z,10.70
2023-03-29T09:08:57.418Z,10.80
2023-03-29T09:11:25.522Z,10.90
2023-03-29T09:13:59.891Z,11.00
2023-03-29T09:16:47.840Z,11.10
2023-03-29T09:19:45.692Z,11.10
2023-03-29T09:22:31.498Z,11.10
2023-03-29T09:25:21.332Z,11.10
2023-03-29T09:27:56.713Z,11.20
2023-03-29T09:30:41.619Z,11.30
2023-03-29T09:33:43.085Z,11.30
2023-03-29T09:36:39.372Z,11.40
2023-03-29T09:39:08.260Z,11.40
2023-03-29T09:41:38.336Z,11.50
2023-03-29T09:44:28.165Z,11.60
2023-03-29T09:47:07.546Z,11.80
2023-03-29T09:49:41.867Z,11.80
2023-03-29T09:52:17.089Z,11.90
2023-03-29T09:54:44.547Z,12.00
2023-03-29T09:57:18.285Z,12.10
2023-03-29T09:59:51.491Z,12.20
2023-03-29T10:02:21.299Z,12.30
2023-03-29T10:05:02.808Z,12.30
2023-03-29T10:07:47.559Z,12.40
2023-03-29T10:10:24.306Z,12.50
2023-03-29T10:13:04.540Z,12.60
2023-03-29T10:15:31.798Z,12.60
2023-03-29T10:18:02.591Z,12.60
2023-03-29T10:20:30.359Z,12.60
2023-03-29T10:22:59.236Z,12.70
2023-03-29T10:25:32.985Z,12.80
2023-03-29T10:28:22.784Z,12.90
2023-03-29T10:30:55.721Z,13.00
2023-03-29T10:33:24.686Z,13.20
2023-03-29T10:35:56.030Z,13.20
2023-03-29T10:38:25.334Z,13.40
2023-03-29T10:40:53.434Z,13.60
2023-03-29T10:43:29.646Z,13.70
2023-03-29T10:46:05.916Z,13.90
2023-03-29T10:48:35.395Z,13.90
2023-03-29T10:51:05.826Z,13.80
2023-03-29T10:53:38.331Z,13.90
2023-03-29T10:56:05.365Z,14.00
2023-03-29T10:58:52.786Z,14.00
2023-03-29T11:02:07.594Z,14.00
2023-03-29T11:04:45.554Z,14.10
2023-03-29T11:07:35.889Z,14.20
2023-03-29T11:10:21.166Z,14.20
2023-03-29T11:12:58.028Z,14.30
2023-03-29T11:15:34.424Z,14.40
2023-03-29T11:18:17.609Z,14.40
2023-03-29T11:21:06.700Z,14.40
2023-03-29T11:24:01.901Z,14.50
2023-03-29T11:26:53.897Z,14.50
2023-03-29T11:29:39.530Z,14.40
2023-03-29T11:32:42.874Z,14.50
2023-03-29T11:35:12.949Z,14.60
2023-03-29T11:37:53.015Z,14.60
2023-03-29T11:40:39.317Z,14.50
2023-03-29T11:43:15.574Z,14.60
2023-03-29T11:45:56.993Z,14.60
2023-03-29T11:48:30.030Z,14.60
2023-03-29T11:51:00.783Z,14.60
2023-03-29T11:53:53.604Z,14.60
2023-03-29T11:56:29.407Z,14.40
2023-03-29T11:59:03.071Z,14.20
2023-03-29T12:01:48.977Z,14.20
2023-03-29T12:04:32.864Z,14.40
2023-03-29T12:07:18.005Z,14.40
2023-03-29T12:09:56.332Z,14.50
2023-03-29T12:12:43.042Z,14.50
2023-03-29T12:15:20.223Z,14.60
2023-03-29T12:17:51.155Z,14.60
2023-03-29T12:20:28.413Z,14.70
2023-03-29T12:22:55.787Z,14.80
2023-03-29T12:25:31.105Z,14.90
2023-03-29T12:28:26.401Z,14.90
2023-03-29T12:30:56.445Z,14.90
2023-03-29T12:33:36.649Z,14.90
2023-03-29T12:36:33.834Z,14.90
2023-03-29T12:39:03.494Z,14.90
2023-03-29T12:41:36.793Z,14.70
2023-03-29T12:44:06.860Z,14.60
2023-03-29T12:46:35.497Z,14.50
2023-03-29T12:49:29.646Z,14.50
2023-03-29T12:51:59.985Z,14.50
2023-03-29T12:54:32.822Z,14.70
2023-03-29T12:57:18.650Z,14.80
2023-03-29T12:59:49.813Z,14.90
2023-03-29T13:02:36.129Z,14.90
2023-03-29T13:05:05.631Z,14.70
2023-03-29T13:07:47.079Z,14.60
2023-03-29T13:10:39.365Z,14.40
2023-03-29T13:13:16.766Z,14.30
2023-03-29T13:15:45.092Z,14.20
2023-03-29T13:18:27.274Z,14.00
2023-03-29T13:21:26.598Z,13.90
2023-03-29T13:23:53.894Z,13.80
2023-03-29T13:26:56.318Z,13.60
2023-03-29T13:29:52.361Z,13.50
2023-03-29T13:32:41.328Z,13.30
2023-03-29T13:35:11.656Z,13.20
2023-03-29T13:37:53.318Z,13.10
2023-03-29T13:40:29.648Z,13.00
2023-03-29T13:43:19.976Z,13.00
2023-03-29T13:46:16.589Z,12.90
2023-03-29T13:48:43.721Z,12.90
2023-03-29T13:51:13.942Z,13.00
2023-03-29T13:53:47.112Z,13.00
2023-03-29T13:56:25.037Z,13.10
2023-03-29T13:58:58.145Z,13.20
2023-03-29T14:01:39.310Z,13.30
2023-03-29T14:04:10.577Z,13.20
2023-03-29T14:06:39.778Z,13.10
2023-03-29T14:09:09.035Z,13.00
2023-03-29T14:11:36.730Z,13.00
2023-03-29T14:14:07.405Z,13.00
2023-03-29T14:16:42.332Z,13.00
2023-03-29T14:19:17.530Z,13.10
2023-03-29T14:21:45.079Z,13.20
2023-03-29T14:24:26.031Z,13.30
2023-03-29T14:26:54.676Z,13.30
2023-03-29T14:29:24.252Z,13.30
2023-03-29T14:31:52.776Z,13.30
2023-03-29T14:34:20.686Z,13.30
2023-03-29T14:36:50.154Z,13.20
2023-03-29T14:39:22.769Z,13.20
2023-03-29T14:41:52.866Z,13.10
2023-03-29T14:44:27.075Z,13.00
2023-03-29T14:46:55.662Z,13.00
2023-03-29T14:49:23.607Z,13.00
2023-03-29T14:51:52.290Z,13.00
2023-03-29T14:54:36.787Z,12.90
2023-03-29T14:57:08.294Z,12.80
2023-03-29T14:59:36.955Z,12.70
2023-03-29T15:02:22.480Z,12.60
2023-03-29T15:05:04.875Z,12.50
2023-03-29T15:07:33.905Z,12.30
2023-03-29T15:10:05.618Z,12.20
2023-03-29T15:12:33.549Z,12.00
2023-03-29T15:15:01.476Z,11.90
2023-03-29T15:17:43.151Z,11.90
2023-03-29T15:20:32.845Z,11.80
2023-03-29T15:23:07.814Z,11.80
2023-03-29T15:25:37.947Z,11.70
2023-03-29T15:28:05.798Z,11.60
2023-03-29T15:30:39.169Z,11.60
2023-03-29T15:33:20.000Z,11.50
2023-03-29T15:35:51.334Z,11.50
2023-03-29T15:38:23.401Z,11.40
2023-03-29T15:40:55.264Z,11.40
2023-03-29T15:43:22.880Z,11.30
2023-03-29T15:45:50.073Z,11.20
2023-03-29T15:48:21.564Z,11.10
2023-03-29T15:50:49.217Z,11.10
2023-03-29T15:53:21.757Z,11.00
2023-03-29T15:55:52.341Z,11.00
2023-03-29T15:58:27.093Z,10.90
2023-03-29T16:00:59.298Z,11.00
2023-03-29T16:03:29.771Z,11.00
2023-03-29T16:05:56.995Z,10.90
2023-03-29T16:08:25.144Z,10.90
2023-03-29T16:10:52.359Z,10.80
2023-03-29T16:13:19.559Z,10.80
2023-03-29T16:15:46.989Z,10.80
2023-03-29T16:18:14.136Z,10.80
2023-03-29T16:20:42.860Z,10.80
2023-03-29T16:23:10.369Z,10.70
2023-03-29T16:25:41.164Z,10.70
2023-03-29T16:28:10.122Z,10.70
2023-03-29T16:30:39.660Z,10.60
2023-03-29T16:33:08.599Z,10.60
2023-03-29T16:35:40.243Z,10.60
2023-03-29T16:38:09.198Z,10.60
2023-03-29T16:40:45.774Z,10.50
2023-03-29T16:43:19.052Z,10.50
2023-03-29T16:45:46.295Z,10.50
2023-03-29T16:48:17.269Z,10.40
2023-03-29T16:50:50.731Z,10.40
2023-03-29T16:53:18.792Z,10.30
2023-03-29T16:55:47.268Z,10.30
2023-03-29T16:58:15.512Z,10.30
2023-03-29T17:00:47.944Z,10.20
2023-03-29T17:03:16.349Z,10.20
2023-03-29T17:05:52.005Z,10.20
2023-03-29T17:08:21.215Z,10.20
2023-03-29T17:10:55.664Z,10.20
2023-03-29T17:13:24.032Z,10.10
2023-03-29T17:15:52.611Z,10.10
2023-03-29T17:18:21.185Z,10.10
2023-03-29T17:20:51.053Z,10.00
2023-03-29T17:23:18.908Z,10.00
2023-03-29T17:25:45.984Z,10.00
2023-03-29T17:28:13.171Z,10.00
2023-03-29T17:30:41.167Z,9.90
2023-03-29T17:33:09.753Z,9.90
2023-03-29T17:35:37.321Z,9.90
2023-03-29T17:38:06.677Z,9.90
2023-03-29T17:40:33.853Z,9.90
2023-03-29T17:43:01.021Z,9.90
2023-03-29T17:45:28.271Z,9.90
2023-03-29T17:47:55.746Z,9.80
2023-03-29T17:50:23.029Z,9.80
2023-03-29T17:52:51.382Z,9.80
2023-03-29T17:55:19.616Z,9.90
2023-03-29T17:57:46.734Z,9.80
2023-03-29T18:00:14.719Z,9.90
2023-03-29T18:02:42.118Z,9.80
2023-03-29T18:05:11.184Z,9.90
2023-03-29T18:07:38.403Z,9.90
2023-03-29T18:10:07.339Z,9.90
2023-03-29T18:12:34.607Z,9.90
2023-03-29T18:15:01.868Z,9.90
2023-03-29T18:17:28.976Z,9.90
2023-03-29T18:19:57.121Z,9.90
2023-03-29T18:22:26.788Z,9.90
2023-03-29T18:24:55.009Z,9.90
2023-03-29T18:27:22.123Z,9.90
2023-03-29T18:29:49.209Z,9.90
2023-03-29T18:32:16.422Z,9.90
2023-03-29T18:34:43.578Z,9.90
2023-03-29T18:37:15.115Z,9.90
2023-03-29T18:39:42.917Z,9.90
2023-03-29T18:42:12.170Z,9.90
2023-03-29T18:44:42.958Z,9.90
2023-03-29T18:47:12.376Z,9.90
2023-03-29T18:49:40.706Z,9.90
2023-03-29T18:52:09.105Z,9.80
2023-03-29T18:54:36.519Z,9.80
2023-03-29T18:57:03.759Z,9.80
2023-03-29T18:59:31.012Z,9.80
2023-03-29T19:02:00.304Z,9.80
2023-03-29T19:04:28.821Z,9.80
2023-03-29T19:06:56.348Z,9.80
2023-03-29T19:09:23.657Z,9.80
2023-03-29T19:11:50.817Z,9.80
2023-03-29T19:14:23.451Z,9.70
2023-03-29T19:16:52.111Z,9.70
2023-03-29T19:19:20.007Z,9.70
2023-03-29T19:21:47.449Z,9.70
2023-03-29T19:24:14.664Z,9.70
2023-03-29T19:26:42.324Z,9.70
2023-03-29T19:29:10.215Z,9.60
2023-03-29T19:31:38.110Z,9.60
2023-03-29T19:34:06.965Z,9.60
2023-03-29T19:36:34.259Z,9.60
2023-03-29T19:39:01.775Z,9.60
2023-03-29T19:41:28.892Z,9.60
2023-03-29T19:43:56.046Z,9.60
2023-03-29T19:46:23.478Z,9.60
2023-03-29T19:48:52.206Z,9.60
2023-03-29T19:51:19.655Z,9.60
2023-03-29T19:53:47.311Z,9.60
2023-03-29T19:56:15.884Z,9.60
2023-03-29T19:58:43.144Z,9.60
2023-03-29T20:01:10.552Z,9.50
2023-03-29T20:03:42.255Z,9.50
2023-03-29T20:06:10.893Z,9.50
2023-03-29T20:08:39.009Z,9.50
2023-03-29T20:11:10.449Z,9.50
2023-03-29T20:13:41.104Z,9.50
2023-03-29T20:16:16.950Z,9.50
2023-03-29T20:18:45.102Z,9.50
2023-03-29T20:21:14.136Z,9.50
2023-03-29T20:23:42.564Z,9.50
2023-03-29T20:26:10.595Z,9.50
2023-03-29T20:28:37.847Z,9.50
2023-03-29T20:31:07.161Z,9.40
2023-03-29T20:33:34.220Z,9.40
2023-03-29T20:36:01.486Z,9.40
2023-03-29T20:38:28.761Z,9.40
2023-03-29T20:40:55.828Z,9.40
2023-03-29T20:43:22.978Z,9.40
2023-03-29T20:45:54.003Z,9.30
2023-03-29T20:48:30.399Z,9.30
2023-03-29T20:50:57.838Z,9.30
2023-03-29T20:53:30.169Z,9.30
2023-03-29T20:55:57.343Z,9.30
2023-03-29T20:58:27.348Z,9.30
2023-03-29T21:00:54.603Z,9.30
2023-03-29T21:03:21.867Z,9.30
2023-03-29T21:05:54.286Z,9.30
2023-03-29T21:08:21.474Z,9.20
2023-03-29T21:10:48.640Z,9.20
2023-03-29T21:13:15.888Z,9.10
2023-03-29T21:15:43.850Z,9.10
2023-03-29T21:18:11.098Z,9.00
2023-03-29T21:20:38.383Z,8.90
2023-03-29T21:23:05.836Z,8.80
2023-03-29T21:25:33.010Z,8.80
2023-03-29T21:28:00.350Z,8.70
2023-03-29T21:30:31.446Z,8.70
2023-03-29T21:32:59.372Z,8.70
2023-03-29T21:35:28.389Z,8.60
2023-03-29T21:37:55.605Z,8.70
2023-03-29T21:40:22.685Z,8.70
2023-03-29T21:42:49.788Z,8.70
2023-03-29T21:45:17.124Z,8.70
2023-03-29T21:47:44.351Z,8.80
2023-03-29T21:50:11.826Z,8.80
2023-03-29T21:52:39.611Z,8.70
2023-03-29T21:55:07.115Z,8.70
2023-03-29T21:57:34.335Z,8.80
2023-03-29T22:00:01.510Z,8.70
2023-03-29T22:02:28.740Z,8.70
2023-03-29T22:04:56.139Z,8.60
2023-03-29T22:07:26.516Z,8.60
2023-03-29T22:09:54.766Z,8.60
2023-03-29T22:12:22.780Z,8.50
2023-03-29T22:14:50.153Z,8.50
2023-03-29T22:17:17.338Z,8.50
2023-03-29T22:19:44.453Z,8.50
2023-03-29T22:22:14.608Z,8.50
2023-03-29T22:24:42.206Z,8.50
2023-03-29T22:27:13.010Z,8.50
2023-03-29T22:29:40.294Z,8.40
2023-03-29T22:32:07.403Z,8.40
2023-03-29T22:34:34.520Z,8.30
2023-03-29T22:37:01.635Z,8.30
2023-03-29T22:39:29.948Z,8.20
2023-03-29T22:41:57.005Z,8.20
2023-03-29T22:44:24.119Z,8.20
2023-03-29T22:46:51.693Z,8.10
2023-03-29T22:49:18.747Z,8.20
2023-03-29T22:51:45.923Z,8.10
2023-03-29T22:54:13.049Z,8.10
2023-03-29T22:56:40.148Z,8.10
2023-03-29T22:59:07.352Z,8.10
2023-03-29T23:01:34.555Z,8.10
2023-03-29T23:04:01.669Z,8.10
2023-03-29T23:06:28.807Z,8.10
2023-03-29T23:08:55.980Z,8.00
2023-03-29T23:11:23.622Z,8.00
2023-03-29T23:13:50.784Z,8.00
2023-03-29T23:16:20.766Z,7.90
2023-03-29T23:18:48.114Z,7.90
2023-03-29T23:21:15.402Z,7.80
2023-03-29T23:23:43.435Z,7.80
2023-03-29T23:26:11.233Z,7.80
2023-03-29T23:28:38.390Z,7.80
2023-03-29T23:31:11.796Z,7.80
2023-03-29T23:33:41.745Z,7.80
2023-03-29T23:36:11.509Z,7.80
2023-03-29T23:38:40.241Z,7.80
2023-03-29T23:41:10.473Z,7.80
2023-03-29T23:43:43.804Z,7.80
2023-03-29T23:46:16.889Z,7.90
2023-03-29T23:48:49.092Z,7.90
2023-03-29T23:51:28.191Z,7.90
2023-03-29T23:53:56.445Z,7.90
2023-03-29T23:56:23.607Z,7.80
2023-03-29T23:58:51.064Z,7.80
